sensor_id;sensor_type;location;lat;lon;timestamp;P1;durP1;ratioP1;P2;durP2;ratioP2
11588;SDS011;5850;51.360;12.362;2023-04-01T00:01:37;1.40;;;1.30;;
11588;SDS011;5850;51.360;12.362;2023-04-01T00:04:05;1.63;;;1.33;;
11588;SDS011;5850;51.360;12.362;2023-04-01T00:06:34;3.37;;;1.57;;
11588;SDS011;5850;51.360;12.362;2023-04-01T00:09:02;2.83;;;1.63;;
11588;SDS011;5850;51.360;12.362;2023-04-01T00:11:32;2.13;;;1.40;;
11588;SDS011;5850;51.360;12.362;2023-04-01T00:14:00;3.00;;;1.40;;
11588;SDS011;5850;51.360;12.362;2023-04-01T00:16:28;2.50;;;1.40;;
11588;SDS011;5850;51.360;12.362;2023-04-01T00:18:57;1.97;;;1.20;;
11588;SDS011;5850;51.360;12.362;2023-04-01T00:21:27;3.00;;;1.43;;
11588;SDS011;5850;51.360;12.362;2023-04-01T00:23:55;3.33;;;2.20;;
11588;SDS011;5850;51.360;12.362;2023-04-01T00:26:24;3.13;;;1.43;;
11588;SDS011;5850;51.360;12.362;2023-04-01T00:28:53;3.93;;;1.60;;
11588;SDS011;5850;51.360;12.362;2023-04-01T00:31:21;4.30;;;2.03;;
11588;SDS011;5850;51.360;12.362;2023-04-01T00:33:50;4.23;;;2.00;;
11588;SDS011;5850;51.360;12.362;2023-04-01T00:36:20;2.73;;;1.70;;
11588;SDS011;5850;51.360;12.362;2023-04-01T00:38:49;3.10;;;1.50;;
11588;SDS011;5850;51.360;12.362;2023-04-01T00:41:18;3.87;;;1.50;;
11588;SDS011;5850;51.360;12.362;2023-04-01T00:43:50;2.23;;;1.77;;
11588;SDS011;5850;51.360;12.362;2023-04-01T00:46:19;3.77;;;1.60;;
11588;SDS011;5850;51.360;12.362;2023-04-01T00:48:51;3.00;;;1.50;;
11588;SDS011;5850;51.360;12.362;2023-04-01T00:51:26;3.07;;;1.60;;
11588;SDS011;5850;51.360;12.362;2023-04-01T00:53:58;2.37;;;1.40;;
11588;SDS011;5850;51.360;12.362;2023-04-01T00:56:31;2.17;;;1.50;;
11588;SDS011;5850;51.360;12.362;2023-04-01T00:59:16;3.33;;;1.80;;
11588;SDS011;5850;51.360;12.362;2023-04-01T01:01:51;1.70;;;1.30;;
11588;SDS011;5850;51.360;12.362;2023-04-01T01:04:25;2.80;;;1.50;;
11588;SDS011;5850;51.360;12.362;2023-04-01T01:10:07;2.73;;;1.60;;
11588;SDS011;5850;51.360;12.362;2023-04-01T01:12:44;2.87;;;1.70;;
11588;SDS011;5850;51.360;12.362;2023-04-01T01:15:46;1.93;;;1.60;;
11588;SDS011;5850;51.360;12.362;2023-04-01T01:18:47;4.00;;;1.77;;
11588;SDS011;5850;51.360;12.362;2023-04-01T01:21:51;3.30;;;1.40;;
11588;SDS011;5850;51.360;12.362;2023-04-01T01:27:54;1.93;;;1.60;;
11588;SDS011;5850;51.360;12.362;2023-04-01T01:31:24;2.47;;;1.40;;
11588;SDS011;5850;51.360;12.362;2023-04-01T01:36:42;2.03;;;1.40;;
11588;SDS011;5850;51.360;12.362;2023-04-01T01:39:13;1.40;;;1.30;;
11588;SDS011;5850;51.360;12.362;2023-04-01T01:41:42;1.93;;;1.50;;
11588;SDS011;5850;51.360;12.362;2023-04-01T01:44:13;1.73;;;1.50;;
11588;SDS011;5850;51.360;12.362;2023-04-01T01:46:43;2.30;;;1.20;;
11588;SDS011;5850;51.360;12.362;2023-04-01T01:49:13;2.97;;;1.53;;
11588;SDS011;5850;51.360;12.362;2023-04-01T01:51:43;2.63;;;1.70;;
11588;SDS011;5850;51.360;12.362;2023-04-01T01:54:21;2.33;;;1.40;;
11588;SDS011;5850;51.360;12.362;2023-04-01T01:56:55;3.87;;;1.60;;
11588;SDS011;5850;51.360;12.362;2023-04-01T01:59:37;2.80;;;1.40;;
11588;SDS011;5850;51.360;12.362;2023-04-01T02:02:07;4.03;;;1.40;;
11588;SDS011;5850;51.360;12.362;2023-04-01T02:04:40;3.23;;;1.70;;
11588;SDS011;5850;51.360;12.362;2023-04-01T02:07:19;1.87;;;1.30;;
11588;SDS011;5850;51.360;12.362;2023-04-01T02:09:58;2.13;;;1.60;;
11588;SDS011;5850;51.360;12.362;2023-04-01T02:12:27;3.10;;;1.63;;
11588;SDS011;5850;51.360;12.362;2023-04-01T02:15:08;3.93;;;1.93;;
11588;SDS011;5850;51.360;12.362;2023-04-01T02:17:42;2.00;;;1.57;;
11588;SDS011;5850;51.360;12.362;2023-04-01T02:20:20;1.97;;;1.30;;
11588;SDS011;5850;51.360;12.362;2023-04-01T02:22:51;3.70;;;1.60;;
11588;SDS011;5850;51.360;12.362;2023-04-01T02:25:23;2.07;;;1.40;;
11588;SDS011;5850;51.360;12.362;2023-04-01T02:27:58;3.40;;;1.70;;
11588;SDS011;5850;51.360;12.362;2023-04-01T02:30:27;3.97;;;1.33;;
11588;SDS011;5850;51.360;12.362;2023-04-01T02:32:59;2.27;;;1.70;;
11588;SDS011;5850;51.360;12.362;2023-04-01T02:35:28;2.97;;;1.60;;
11588;SDS011;5850;51.360;12.362;2023-04-01T02:38:01;4.37;;;1.37;;
11588;SDS011;5850;51.360;12.362;2023-04-01T02:40:29;4.07;;;1.90;;
11588;SDS011;5850;51.360;12.362;2023-04-01T02:43:14;2.50;;;1.63;;
11588;SDS011;5850;51.360;12.362;2023-04-01T02:45:47;1.50;;;1.40;;
11588;SDS011;5850;51.360;12.362;2023-04-01T02:48:15;2.50;;;1.57;;
11588;SDS011;5850;51.360;12.362;2023-04-01T02:50:44;2.77;;;1.47;;
11588;SDS011;5850;51.360;12.362;2023-04-01T02:53:12;3.83;;;1.70;;
11588;SDS011;5850;51.360;12.362;2023-04-01T02:55:40;3.80;;;1.30;;
11588;SDS011;5850;51.360;12.362;2023-04-01T02:58:09;5.33;;;1.60;;
11588;SDS011;5850;51.360;12.362;2023-04-01T03:00:37;2.60;;;1.43;;
11588;SDS011;5850;51.360;12.362;2023-04-01T03:03:07;4.20;;;1.33;;
11588;SDS011;5850;51.360;12.362;2023-04-01T03:05:40;1.67;;;1.20;;
11588;SDS011;5850;51.360;12.362;2023-04-01T03:08:08;3.53;;;1.23;;
11588;SDS011;5850;51.360;12.362;2023-04-01T03:10:38;1.97;;;1.10;;
11588;SDS011;5850;51.360;12.362;2023-04-01T03:13:06;4.33;;;1.23;;
11588;SDS011;5850;51.360;12.362;2023-04-01T03:15:34;3.40;;;1.23;;
11588;SDS011;5850;51.360;12.362;2023-04-01T03:18:02;3.97;;;1.70;;
11588;SDS011;5850;51.360;12.362;2023-04-01T03:20:31;3.93;;;1.20;;
11588;SDS011;5850;51.360;12.362;2023-04-01T03:22:59;3.33;;;1.30;;
11588;SDS011;5850;51.360;12.362;2023-04-01T03:25:27;5.97;;;1.20;;
11588;SDS011;5850;51.360;12.362;2023-04-01T03:27:57;3.40;;;1.20;;
11588;SDS011;5850;51.360;12.362;2023-04-01T03:30:26;4.03;;;1.30;;
11588;SDS011;5850;51.360;12.362;2023-04-01T03:32:56;2.07;;;1.60;;
11588;SDS011;5850;51.360;12.362;2023-04-01T03:35:26;3.77;;;1.77;;
11588;SDS011;5850;51.360;12.362;2023-04-01T03:37:54;2.20;;;1.50;;
11588;SDS011;5850;51.360;12.362;2023-04-01T03:40:24;3.50;;;1.67;;
11588;SDS011;5850;51.360;12.362;2023-04-01T03:42:52;4.20;;;1.70;;
11588;SDS011;5850;51.360;12.362;2023-04-01T03:45:22;3.77;;;1.30;;
11588;SDS011;5850;51.360;12.362;2023-04-01T03:47:50;1.80;;;1.57;;
11588;SDS011;5850;51.360;12.362;2023-04-01T03:50:19;3.03;;;1.63;;
11588;SDS011;5850;51.360;12.362;2023-04-01T03:52:47;2.97;;;1.40;;
11588;SDS011;5850;51.360;12.362;2023-04-01T03:55:17;4.23;;;1.30;;
11588;SDS011;5850;51.360;12.362;2023-04-01T03:57:46;3.67;;;1.80;;
11588;SDS011;5850;51.360;12.362;2023-04-01T04:00:15;2.27;;;1.63;;
11588;SDS011;5850;51.360;12.362;2023-04-01T04:02:44;4.50;;;1.80;;
11588;SDS011;5850;51.360;12.362;2023-04-01T04:05:12;4.13;;;2.40;;
11588;SDS011;5850;51.360;12.362;2023-04-01T04:07:41;3.03;;;1.87;;
11588;SDS011;5850;51.360;12.362;2023-04-01T04:10:09;4.73;;;1.93;;
11588;SDS011;5850;51.360;12.362;2023-04-01T04:12:38;2.80;;;1.77;;
11588;SDS011;5850;51.360;12.362;2023-04-01T04:15:07;4.70;;;1.70;;
11588;SDS011;5850;51.360;12.362;2023-04-01T04:17:36;3.13;;;1.87;;
11588;SDS011;5850;51.360;12.362;2023-04-01T04:20:05;5.23;;;1.80;;
11588;SDS011;5850;51.360;12.362;2023-04-01T04:22:37;4.03;;;2.00;;
11588;SDS011;5850;51.360;12.362;2023-04-01T04:25:05;3.00;;;1.77;;
11588;SDS011;5850;51.360;12.362;2023-04-01T04:27:34;4.70;;;1.77;;
11588;SDS011;5850;51.360;12.362;2023-04-01T04:30:03;2.90;;;1.83;;
11588;SDS011;5850;51.360;12.362;2023-04-01T04:32:33;3.53;;;2.27;;
11588;SDS011;5850;51.360;12.362;2023-04-01T04:35:02;2.90;;;1.90;;
11588;SDS011;5850;51.360;12.362;2023-04-01T04:37:32;4.47;;;1.73;;
11588;SDS011;5850;51.360;12.362;2023-04-01T04:40:00;2.30;;;1.77;;
11588;SDS011;5850;51.360;12.362;2023-04-01T04:42:29;2.77;;;1.57;;
11588;SDS011;5850;51.360;12.362;2023-04-01T04:44:57;6.13;;;1.97;;
11588;SDS011;5850;51.360;12.362;2023-04-01T04:47:28;3.27;;;1.60;;
11588;SDS011;5850;51.360;12.362;2023-04-01T04:49:56;2.93;;;1.57;;
11588;SDS011;5850;51.360;12.362;2023-04-01T04:52:24;4.47;;;1.60;;
11588;SDS011;5850;51.360;12.362;2023-04-01T04:54:53;3.63;;;1.70;;
11588;SDS011;5850;51.360;12.362;2023-04-01T04:57:21;2.10;;;1.70;;
11588;SDS011;5850;51.360;12.362;2023-04-01T04:59:50;3.60;;;1.63;;
11588;SDS011;5850;51.360;12.362;2023-04-01T05:02:18;2.93;;;1.80;;
11588;SDS011;5850;51.360;12.362;2023-04-01T05:04:47;3.07;;;1.37;;
11588;SDS011;5850;51.360;12.362;2023-04-01T05:07:17;4.10;;;1.73;;
11588;SDS011;5850;51.360;12.362;2023-04-01T05:09:46;2.83;;;1.50;;
11588;SDS011;5850;51.360;12.362;2023-04-01T05:12:15;5.70;;;1.63;;
11588;SDS011;5850;51.360;12.362;2023-04-01T05:14:46;3.57;;;1.27;;
11588;SDS011;5850;51.360;12.362;2023-04-01T05:17:14;4.70;;;1.60;;
11588;SDS011;5850;51.360;12.362;2023-04-01T05:19:43;1.70;;;1.33;;
11588;SDS011;5850;51.360;12.362;2023-04-01T05:22:11;5.97;;;1.90;;
11588;SDS011;5850;51.360;12.362;2023-04-01T05:24:39;3.83;;;1.57;;
11588;SDS011;5850;51.360;12.362;2023-04-01T05:27:08;2.67;;;1.40;;
11588;SDS011;5850;51.360;12.362;2023-04-01T05:29:44;2.07;;;1.20;;
11588;SDS011;5850;51.360;12.362;2023-04-01T05:32:13;3.03;;;1.33;;
11588;SDS011;5850;51.360;12.362;2023-04-01T05:34:42;4.47;;;1.23;;
11588;SDS011;5850;51.360;12.362;2023-04-01T05:37:10;3.17;;;1.60;;
11588;SDS011;5850;51.360;12.362;2023-04-01T05:39:39;1.73;;;1.10;;
11588;SDS011;5850;51.360;12.362;2023-04-01T05:42:10;4.00;;;1.50;;
11588;SDS011;5850;51.360;12.362;2023-04-01T05:44:42;2.30;;;1.30;;
11588;SDS011;5850;51.360;12.362;2023-04-01T05:47:13;2.03;;;1.10;;
11588;SDS011;5850;51.360;12.362;2023-04-01T05:49:44;1.27;;;1.00;;
11588;SDS011;5850;51.360;12.362;2023-04-01T05:52:12;2.13;;;1.33;;
11588;SDS011;5850;51.360;12.362;2023-04-01T05:54:42;3.60;;;1.50;;
11588;SDS011;5850;51.360;12.362;2023-04-01T05:57:13;2.50;;;1.20;;
11588;SDS011;5850;51.360;12.362;2023-04-01T05:59:42;3.60;;;1.30;;
11588;SDS011;5850;51.360;12.362;2023-04-01T06:02:10;1.30;;;1.20;;
11588;SDS011;5850;51.360;12.362;2023-04-01T06:04:41;1.47;;;1.30;;
11588;SDS011;5850;51.360;12.362;2023-04-01T06:07:16;2.60;;;1.40;;
11588;SDS011;5850;51.360;12.362;2023-04-01T06:09:46;1.60;;;1.33;;
11588;SDS011;5850;51.360;12.362;2023-04-01T06:12:22;1.87;;;1.03;;
11588;SDS011;5850;51.360;12.362;2023-04-01T06:15:13;1.10;;;1.00;;
11588;SDS011;5850;51.360;12.362;2023-04-01T06:26:55;3.23;;;1.23;;
11588;SDS011;5850;51.360;12.362;2023-04-01T06:50:30;3.47;;;1.37;;
11588;SDS011;5850;51.360;12.362;2023-04-01T06:55:57;2.97;;;1.30;;
11588;SDS011;5850;51.360;12.362;2023-04-01T06:58:41;2.50;;;1.33;;
11588;SDS011;5850;51.360;12.362;2023-04-01T07:01:19;2.70;;;1.77;;
11588;SDS011;5850;51.360;12.362;2023-04-01T07:03:55;1.93;;;1.20;;
11588;SDS011;5850;51.360;12.362;2023-04-01T07:06:35;4.13;;;1.50;;
11588;SDS011;5850;51.360;12.362;2023-04-01T07:09:19;2.77;;;1.53;;
11588;SDS011;5850;51.360;12.362;2023-04-01T07:12:18;1.47;;;1.30;;
11588;SDS011;5850;51.360;12.362;2023-04-01T07:15:24;2.93;;;1.23;;
11588;SDS011;5850;51.360;12.362;2023-04-01T07:18:05;1.37;;;1.27;;
11588;SDS011;5850;51.360;12.362;2023-04-01T07:20:48;3.70;;;1.63;;
11588;SDS011;5850;51.360;12.362;2023-04-01T07:23:23;2.17;;;1.40;;
11588;SDS011;5850;51.360;12.362;2023-04-01T07:25:58;3.03;;;1.63;;
11588;SDS011;5850;51.360;12.362;2023-04-01T07:28:34;2.73;;;1.37;;
11588;SDS011;5850;51.360;12.362;2023-04-01T07:42:04;1.33;;;1.00;;
11588;SDS011;5850;51.360;12.362;2023-04-01T07:45:28;1.20;;;1.10;;
11588;SDS011;5850;51.360;12.362;2023-04-01T07:57:19;2.30;;;1.30;;
11588;SDS011;5850;51.360;12.362;2023-04-01T08:00:07;2.53;;;1.30;;
11588;SDS011;5850;51.360;12.362;2023-04-01T08:09:20;1.27;;;1.10;;
11588;SDS011;5850;51.360;12.362;2023-04-01T08:20:50;1.57;;;0.90;;
11588;SDS011;5850;51.360;12.362;2023-04-01T08:23:43;1.27;;;0.80;;
11588;SDS011;5850;51.360;12.362;2023-04-01T08:34:39;1.73;;;0.73;;
11588;SDS011;5850;51.360;12.362;2023-04-01T08:40:02;1.53;;;0.97;;
11588;SDS011;5850;51.360;12.362;2023-04-01T08:46:40;0.70;;;0.70;;
11588;SDS011;5850;51.360;12.362;2023-04-01T08:52:35;0.97;;;0.73;;
11588;SDS011;5850;51.360;12.362;2023-04-01T09:01:45;2.93;;;0.87;;
11588;SDS011;5850;51.360;12.362;2023-04-01T09:04:39;2.03;;;0.90;;
11588;SDS011;5850;51.360;12.362;2023-04-01T09:10:29;1.20;;;1.00;;
11588;SDS011;5850;51.360;12.362;2023-04-01T09:27:59;2.10;;;1.13;;
11588;SDS011;5850;51.360;12.362;2023-04-01T09:40:15;0.93;;;0.90;;
11588;SDS011;5850;51.360;12.362;2023-04-01T09:46:17;1.77;;;1.03;;
11588;SDS011;5850;51.360;12.362;2023-04-01T10:00:39;2.20;;;1.10;;
11588;SDS011;5850;51.360;12.362;2023-04-01T10:03:28;1.33;;;0.73;;
11588;SDS011;5850;51.360;12.362;2023-04-01T10:17:54;1.33;;;0.70;;
11588;SDS011;5850;51.360;12.362;2023-04-01T10:23:15;0.77;;;0.77;;
11588;SDS011;5850;51.360;12.362;2023-04-01T11:06:19;1.70;;;1.60;;
11588;SDS011;5850;51.360;12.362;2023-04-01T11:18:01;3.27;;;2.40;;
11588;SDS011;5850;51.360;12.362;2023-04-01T11:23:49;1.03;;;0.93;;
11588;SDS011;5850;51.360;12.362;2023-04-01T11:40:56;3.00;;;0.80;;
11588;SDS011;5850;51.360;12.362;2023-04-01T11:49:44;0.53;;;0.40;;
11588;SDS011;5850;51.360;12.362;2023-04-01T12:01:43;1.67;;;0.80;;
11588;SDS011;5850;51.360;12.362;2023-04-01T12:04:42;1.90;;;0.50;;
11588;SDS011;5850;51.360;12.362;2023-04-01T12:07:44;0.60;;;0.60;;
11588;SDS011;5850;51.360;12.362;2023-04-01T12:13:39;0.80;;;0.73;;
11588;SDS011;5850;51.360;12.362;2023-04-01T12:16:37;1.00;;;0.70;;
11588;SDS011;5850;51.360;12.362;2023-04-01T12:25:38;1.17;;;0.83;;
11588;SDS011;5850;51.360;12.362;2023-04-01T12:30:45;1.33;;;0.87;;
11588;SDS011;5850;51.360;12.362;2023-04-01T12:36:45;0.80;;;0.80;;
11588;SDS011;5850;51.360;12.362;2023-04-01T13:02:26;1.30;;;0.70;;
11588;SDS011;5850;51.360;12.362;2023-04-01T13:05:30;1.27;;;0.90;;
11588;SDS011;5850;51.360;12.362;2023-04-01T13:15:02;0.70;;;0.70;;
11588;SDS011;5850;51.360;12.362;2023-04-01T13:20:52;0.77;;;0.60;;
11588;SDS011;5850;51.360;12.362;2023-04-01T13:44:17;0.57;;;0.50;;
11588;SDS011;5850;51.360;12.362;2023-04-01T13:50:25;0.60;;;0.60;;
11588;SDS011;5850;51.360;12.362;2023-04-01T14:01:57;1.00;;;0.80;;
11588;SDS011;5850;51.360;12.362;2023-04-01T14:08:20;0.60;;;0.60;;
11588;SDS011;5850;51.360;12.362;2023-04-01T14:11:13;1.33;;;0.77;;
11588;SDS011;5850;51.360;12.362;2023-04-01T14:40:56;1.80;;;0.80;;
11588;SDS011;5850;51.360;12.362;2023-04-01T14:49:22;0.80;;;0.60;;
11588;SDS011;5850;51.360;12.362;2023-04-01T14:52:15;0.83;;;0.83;;
11588;SDS011;5850;51.360;12.362;2023-04-01T14:54:54;1.83;;;0.93;;
11588;SDS011;5850;51.360;12.362;2023-04-01T15:00:15;0.97;;;0.77;;
11588;SDS011;5850;51.360;12.362;2023-04-01T15:02:59;1.43;;;1.30;;
11588;SDS011;5850;51.360;12.362;2023-04-01T15:06:24;1.17;;;1.10;;
11588;SDS011;5850;51.360;12.362;2023-04-01T15:18:18;0.80;;;0.80;;
11588;SDS011;5850;51.360;12.362;2023-04-01T15:21:23;0.70;;;0.67;;
11588;SDS011;5850;51.360;12.362;2023-04-01T15:29:54;0.87;;;0.80;;
11588;SDS011;5850;51.360;12.362;2023-04-01T15:32:57;0.93;;;0.87;;
11588;SDS011;5850;51.360;12.362;2023-04-01T15:35:44;1.07;;;0.97;;
11588;SDS011;5850;51.360;12.362;2023-04-01T15:38:44;0.97;;;0.90;;
11588;SDS011;5850;51.360;12.362;2023-04-01T15:44:26;0.93;;;0.80;;
11588;SDS011;5850;51.360;12.362;2023-04-01T15:48:13;2.53;;;1.30;;
11588;SDS011;5850;51.360;12.362;2023-04-01T15:50:54;1.80;;;1.47;;
11588;SDS011;5850;51.360;12.362;2023-04-01T15:53:35;3.50;;;1.30;;
11588;SDS011;5850;51.360;12.362;2023-04-01T15:59:40;2.03;;;1.93;;
11588;SDS011;5850;51.360;12.362;2023-04-01T16:02:38;3.07;;;2.30;;
11588;SDS011;5850;51.360;12.362;2023-04-01T16:08:12;2.63;;;2.33;;
11588;SDS011;5850;51.360;12.362;2023-04-01T16:22:25;1.63;;;1.53;;
11588;SDS011;5850;51.360;12.362;2023-04-01T16:25:20;1.43;;;1.20;;
11588;SDS011;5850;51.360;12.362;2023-04-01T16:28:28;1.40;;;1.30;;
11588;SDS011;5850;51.360;12.362;2023-04-01T16:36:12;1.37;;;1.27;;
11588;SDS011;5850;51.360;12.362;2023-04-01T16:42:07;1.40;;;1.30;;
11588;SDS011;5850;51.360;12.362;2023-04-01T16:45:57;2.10;;;1.90;;
11588;SDS011;5850;51.360;12.362;2023-04-01T16:48:14;3.80;;;2.00;;
11588;SDS011;5850;51.360;12.362;2023-04-01T16:50:59;3.57;;;2.40;;
11588;SDS011;5850;51.360;12.362;2023-04-01T16:53:52;2.17;;;1.97;;
11588;SDS011;5850;51.360;12.362;2023-04-01T17:12:13;4.90;;;3.80;;
11588;SDS011;5850;51.360;12.362;2023-04-01T17:23:31;2.13;;;1.90;;
11588;SDS011;5850;51.360;12.362;2023-04-01T17:26:20;2.77;;;2.37;;
11588;SDS011;5850;51.360;12.362;2023-04-01T17:35:54;4.63;;;3.30;;
11588;SDS011;5850;51.360;12.362;2023-04-01T17:40:43;5.17;;;3.43;;
11588;SDS011;5850;51.360;12.362;2023-04-01T17:50:13;4.00;;;2.33;;
11588;SDS011;5850;51.360;12.362;2023-04-01T17:53:00;4.33;;;2.50;;
11588;SDS011;5850;51.360;12.362;2023-04-01T18:16:26;4.80;;;2.70;;
11588;SDS011;5850;51.360;12.362;2023-04-01T18:19:18;3.57;;;2.53;;
11588;SDS011;5850;51.360;12.362;2023-04-01T18:25:21;4.50;;;2.50;;
11588;SDS011;5850;51.360;12.362;2023-04-01T18:31:47;4.27;;;2.30;;
11588;SDS011;5850;51.360;12.362;2023-04-01T18:37:29;6.03;;;3.20;;
11588;SDS011;5850;51.360;12.362;2023-04-01T18:40:10;5.27;;;2.90;;
11588;SDS011;5850;51.360;12.362;2023-04-01T18:43:12;4.00;;;2.63;;
11588;SDS011;5850;51.360;12.362;2023-04-01T18:46:26;2.80;;;2.60;;
11588;SDS011;5850;51.360;12.362;2023-04-01T18:51:51;4.93;;;2.70;;
11588;SDS011;5850;51.360;12.362;2023-04-01T19:03:05;7.30;;;5.10;;
11588;SDS011;5850;51.360;12.362;2023-04-01T19:05:44;8.13;;;4.70;;
11588;SDS011;5850;51.360;12.362;2023-04-01T19:11:10;3.03;;;2.43;;
11588;SDS011;5850;51.360;12.362;2023-04-01T19:16:46;2.67;;;2.47;;
11588;SDS011;5850;51.360;12.362;2023-04-01T19:20:00;3.57;;;2.87;;
11588;SDS011;5850;51.360;12.362;2023-04-01T19:26:01;3.40;;;3.10;;
11588;SDS011;5850;51.360;12.362;2023-04-01T19:34:38;6.07;;;2.50;;
11588;SDS011;5850;51.360;12.362;2023-04-01T19:46:36;3.20;;;2.87;;
11588;SDS011;5850;51.360;12.362;2023-04-01T19:52:32;3.87;;;2.73;;
11588;SDS011;5850;51.360;12.362;2023-04-01T20:00:46;2.87;;;2.67;;
11588;SDS011;5850;51.360;12.362;2023-04-01T20:03:42;3.50;;;3.20;;
11588;SDS011;5850;51.360;12.362;2023-04-01T20:12:53;3.70;;;3.40;;
11588;SDS011;5850;51.360;12.362;2023-04-01T20:15:40;3.87;;;3.50;;
11588;SDS011;5850;51.360;12.362;2023-04-01T20:18:13;4.50;;;2.90;;
11588;SDS011;5850;51.360;12.362;2023-04-01T20:21:02;3.40;;;3.00;;
11588;SDS011;5850;51.360;12.362;2023-04-01T20:23:45;4.20;;;3.80;;
11588;SDS011;5850;51.360;12.362;2023-04-01T20:26:46;4.30;;;3.90;;
11588;SDS011;5850;51.360;12.362;2023-04-01T20:38:07;4.50;;;4.10;;
11588;SDS011;5850;51.360;12.362;2023-04-01T20:41:10;4.27;;;3.87;;
11588;SDS011;5850;51.360;12.362;2023-04-01T20:46:59;4.63;;;4.00;;
11588;SDS011;5850;51.360;12.362;2023-04-01T20:55:47;4.00;;;3.70;;
11588;SDS011;5850;51.360;12.362;2023-04-01T21:19:32;4.70;;;4.30;;
11588;SDS011;5850;51.360;12.362;2023-04-01T21:22:45;5.20;;;4.17;;
11588;SDS011;5850;51.360;12.362;2023-04-01T21:25:28;4.67;;;4.27;;
11588;SDS011;5850;51.360;12.362;2023-04-01T21:31:15;4.73;;;4.33;;
11588;SDS011;5850;51.360;12.362;2023-04-01T21:34:28;4.83;;;4.43;;
11588;SDS011;5850;51.360;12.362;2023-04-01T21:40:35;5.20;;;4.70;;
11588;SDS011;5850;51.360;12.362;2023-04-01T21:43:41;4.47;;;4.07;;
11588;SDS011;5850;51.360;12.362;2023-04-01T22:01:59;4.37;;;3.97;;
11588;SDS011;5850;51.360;12.362;2023-04-01T22:13:55;4.20;;;3.87;;
11588;SDS011;5850;51.360;12.362;2023-04-01T22:16:37;4.37;;;3.97;;
11588;SDS011;5850;51.360;12.362;2023-04-01T22:22:18;4.67;;;4.27;;
11588;SDS011;5850;51.360;12.362;2023-04-01T22:25:15;4.30;;;3.90;;
11588;SDS011;5850;51.360;12.362;2023-04-01T22:30:31;4.17;;;3.87;;
11588;SDS011;5850;51.360;12.362;2023-04-01T22:44:29;3.93;;;3.30;;
11588;SDS011;5850;51.360;12.362;2023-04-01T22:49:42;4.10;;;3.20;;
11588;SDS011;5850;51.360;12.362;2023-04-01T22:52:51;3.67;;;3.37;;
11588;SDS011;5850;51.360;12.362;2023-04-01T22:55:20;3.63;;;3.33;;
11588;SDS011;5850;51.360;12.362;2023-04-01T22:57:55;4.10;;;3.80;;
11588;SDS011;5850;51.360;12.362;2023-04-01T23:00:49;4.23;;;3.80;;
11588;SDS011;5850;51.360;12.362;2023-04-01T23:03:30;4.30;;;3.90;;
11588;SDS011;5850;51.360;12.362;2023-04-01T23:06:01;4.70;;;4.30;;
11588;SDS011;5850;51.360;12.362;2023-04-01T23:08:45;4.27;;;3.87;;
11588;SDS011;5850;51.360;12.362;2023-04-01T23:11:50;4.87;;;4.40;;
11588;SDS011;5850;51.360;12.362;2023-04-01T23:33:11;3.77;;;3.40;;
11588;SDS011;5850;51.360;12.362;2023-04-01T23:35:48;4.00;;;3.60;;
11588;SDS011;5850;51.360;12.362;2023-04-01T23:38:39;5.33;;;3.93;;
11588;SDS011;5850;51.360;12.362;2023-04-01T23:41:16;3.63;;;3.33;;
11588;SDS011;5850;51.360;12.362;2023-04-01T23:43:56;4.53;;;4.00;;
11588;SDS011;5850;51.360;12.362;2023-04-01T23:46:30;3.40;;;3.10;;
11588;SDS011;5850;51.360;12.362;2023-04-01T23:49:02;3.77;;;3.10;;
11588;SDS011;5850;51.360;12.362;2023-04-01T23:51:38;3.70;;;3.30;;
11588;SDS011;5850;51.360;12.362;2023-04-01T23:54:19;3.60;;;3.23;;
11588;SDS011;5850;51.360;12.362;2023-04-01T23:57:11;3.50;;;3.20;;
11588;SDS011;5850;51.360;12.362;2023-04-01T23:59:46;4.03;;;3.70;;
